Time;durP1;ratioP1;P1;durP2;ratioP2;P2;SDS_P1;SDS_P2;PMS_P1;PMS_P2;Temp;Humidity;BMP_temperature;BMP_pressure;BME280_temperature;BME280_humidity;BME280_pressure;Samples;Min_cycle;Max_cycle;Signal;HPM_P1;HPM_P2
2023/05/29 00:00:09;;;;;;;;;;;17.00;90.30;;;;;;5061242;28;19916;-59
2023/05/29 00:02:35;;;;;;;;;;;17.00;91.50;;;;;;5061148;28;19931;-60
2023/05/29 00:05:02;;;;;;;;;;;17.00;91.60;;;;;;5061293;28;19909;-59
2023/05/29 00:07:32;;;;;;;;;;;17.00;94.70;;;;;;5061260;28;19913;-60
2023/05/29 00:09:58;;;;;;;;;;;17.00;88.80;;;;;;5060988;28;19947;-60
2023/05/29 00:12:25;;;;;;;;;;;16.90;90.70;;;;;;5060901;28;19909;-59
2023/05/29 00:14:50;;;;;;;;;;;16.90;93.10;;;;;;5061019;28;20269;-59
2023/05/29 00:17:16;;;;;;;;;;;16.90;92.00;;;;;;5060757;28;19949;-59
2023/05/29 00:19:42;;;;;;;;;;;16.90;87.50;;;;;;5060945;28;19924;-60
2023/05/29 00:22:08;;;;;;;;;;;16.80;89.90;;;;;;5061045;28;20364;-59
2023/05/29 00:24:34;;;;;;;;;;;16.80;94.40;;;;;;5060761;28;19909;-59
2023/05/29 00:27:01;;;;;;;;;;;16.80;92.90;;;;;;5060500;28;19917;-60
2023/05/29 00:29:27;;;;;;;;;;;16.80;92.00;;;;;;5061090;28;20003;-60
2023/05/29 00:31:53;;;;;;;;;;;16.70;93.80;;;;;;5061147;28;19909;-59
2023/05/29 00:34:23;;;;;;;;;;;16.70;93.20;;;;;;5060814;28;19947;-59
2023/05/29 00:36:48;;;;;;;;;;;16.70;92.50;;;;;;5060790;28;19909;-59
2023/05/29 00:39:14;;;;;;;;;;;16.70;90.60;;;;;;5060703;28;20456;-59
2023/05/29 00:41:40;;;;;;;;;;;16.70;92.30;;;;;;5060904;28;19909;-59
2023/05/29 00:44:05;;;;;;;;;;;16.60;93.80;;;;;;5060305;28;19988;-59
2023/05/29 00:46:31;;;;;;;;;;;16.70;97.80;;;;;;5060416;28;19909;-59
2023/05/29 00:48:58;;;;;;;;;;;16.70;91.90;;;;;;5060773;28;19959;-59
2023/05/29 00:51:25;;;;;;;;;;;16.60;95.20;;;;;;5061015;28;19912;-59
2023/05/29 00:53:52;;;;;;;;;;;16.60;92.90;;;;;;5060405;28;19912;-59
2023/05/29 00:56:20;;;;;;;;;;;16.60;94.60;;;;;;5060385;28;19987;-59
2023/05/29 00:58:47;;;;;;;;;;;16.50;92.60;;;;;;5059948;28;19909;-59
2023/05/29 01:01:13;;;;;;;;;;;16.50;94.70;;;;;;5060294;28;19987;-59
2023/05/29 01:03:40;;;;;;;;;;;16.50;95.90;;;;;;5060236;28;19951;-60
2023/05/29 01:06:05;;;;;;;;;;;16.50;97.60;;;;;;5060155;28;19917;-59
2023/05/29 01:08:31;;;;;;;;;;;16.50;93.40;;;;;;5059807;28;19916;-59
2023/05/29 01:11:00;;;;;;;;;;;16.40;93.50;;;;;;5060032;28;19916;-60
2023/05/29 01:13:29;;;;;;;;;;;16.40;94.90;;;;;;5041737;28;19967;-59
2023/05/29 01:16:00;;;;;;;;;;;16.40;94.50;;;;;;5059766;28;19970;-59
2023/05/29 01:18:39;;;;;;;;;;;16.40;96.20;;;;;;5059955;28;20284;-59
2023/05/29 01:21:21;;;;;;;;;;;16.30;93.80;;;;;;5059800;28;19999;-59
2023/05/29 01:23:59;;;;;;;;;;;16.30;95.90;;;;;;5059426;28;19909;-59
2023/05/29 01:26:40;;;;;;;;;;;16.30;94.90;;;;;;5059770;28;19915;-59
2023/05/29 01:29:07;;;;;;;;;;;16.30;95.60;;;;;;5059763;28;20377;-59
2023/05/29 01:31:32;;;;;;;;;;;16.20;93.80;;;;;;5058311;28;19959;-59
2023/05/29 01:34:00;;;;;;;;;;;16.30;93.90;;;;;;5057432;28;19908;-59
2023/05/29 01:36:26;;;;;;;;;;;16.20;95.90;;;;;;5057354;28;19966;-59
2023/05/29 01:38:52;;;;;;;;;;;16.20;94.60;;;;;;5057465;28;19915;-59
2023/05/29 01:41:19;;;;;;;;;;;16.20;95.90;;;;;;5057423;28;19916;-60
2023/05/29 01:43:45;;;;;;;;;;;16.20;94.50;;;;;;5058235;28;19919;-59
2023/05/29 01:46:12;;;;;;;;;;;16.20;97.40;;;;;;5058969;28;19944;-59
2023/05/29 01:48:38;;;;;;;;;;;16.10;95.10;;;;;;5058703;28;19913;-59
2023/05/29 01:51:03;;;;;;;;;;;16.10;93.70;;;;;;5059404;28;19929;-59
2023/05/29 01:53:29;;;;;;;;;;;16.00;98.20;;;;;;5059110;28;19909;-59
2023/05/29 01:55:55;;;;;;;;;;;16.00;97.40;;;;;;5058430;28;19913;-59
2023/05/29 01:58:21;;;;;;;;;;;16.00;96.10;;;;;;5058797;28;19908;-59
2023/05/29 02:00:47;;;;;;;;;;;16.00;96.70;;;;;;5058532;28;19916;-59
2023/05/29 02:03:13;;;;;;;;;;;16.00;97.50;;;;;;5058825;28;19916;-59
2023/05/29 02:05:38;;;;;;;;;;;15.90;94.90;;;;;;5059084;28;19909;-59
2023/05/29 02:08:05;;;;;;;;;;;15.90;95.00;;;;;;5058955;28;19913;-59
2023/05/29 02:10:31;;;;;;;;;;;15.90;95.90;;;;;;5058795;28;19991;-59
2023/05/29 02:12:57;;;;;;;;;;;15.80;97.00;;;;;;5058509;28;19951;-59
2023/05/29 02:15:23;;;;;;;;;;;15.80;95.80;;;;;;5058760;28;19909;-59
2023/05/29 02:17:49;;;;;;;;;;;15.70;95.80;;;;;;5058703;28;19961;-59
2023/05/29 02:20:15;;;;;;;;;;;15.70;96.80;;;;;;5058535;28;19935;-59
2023/05/29 02:22:41;;;;;;;;;;;15.70;97.60;;;;;;5058618;28;19917;-58
2023/05/29 02:25:07;;;;;;;;;;;15.70;96.60;;;;;;5058388;28;19909;-59
2023/05/29 02:27:32;;;;;;;;;;;15.70;97.10;;;;;;5058574;28;19966;-59
2023/05/29 02:29:58;;;;;;;;;;;15.70;96.00;;;;;;5058435;28;19955;-59
2023/05/29 02:32:25;;;;;;;;;;;15.60;96.10;;;;;;5071637;28;19935;-59
2023/05/29 02:34:52;;;;;;;;;;;15.60;96.20;;;;;;5073177;28;19962;-59
2023/05/29 02:37:17;;;;;;;;;;;15.60;96.10;;;;;;5074967;28;20379;-59
2023/05/29 02:39:43;;;;;;;;;;;15.60;98.00;;;;;;5078299;28;19931;-60
2023/05/29 02:42:09;;;;;;;;;;;15.50;96.50;;;;;;5078360;28;19946;-59
2023/05/29 02:44:34;;;;;;;;;;;15.50;99.90;;;;;;5078541;28;19908;-59
2023/05/29 02:47:00;;;;;;;;;;;15.50;98.20;;;;;;5077910;28;19921;-59
2023/05/29 02:49:25;;;;;;;;;;;15.50;97.10;;;;;;5078348;28;19908;-59
2023/05/29 02:51:56;;;;;;;;;;;15.50;99.90;;;;;;5069628;28;20279;-59
2023/05/29 02:54:22;;;;;;;;;;;15.50;99.90;;;;;;5058035;28;20321;-59
2023/05/29 02:56:47;;;;;;;;;;;15.40;99.90;;;;;;5058249;28;19908;-59
2023/05/29 02:59:13;;;;;;;;;;;15.40;98.90;;;;;;5057927;28;19944;-59
2023/05/29 03:01:38;;;;;;;;;;;15.40;98.40;;;;;;5058009;28;19913;-59
2023/05/29 03:04:04;;;;;;;;;;;15.40;97.70;;;;;;5058098;28;19909;-59
2023/05/29 03:06:30;;;;;;;;;;;15.40;97.10;;;;;;5056513;28;19916;-59
2023/05/29 03:08:56;;;;;;;;;;;15.40;99.40;;;;;;5056315;28;20037;-59
2023/05/29 03:11:24;;;;;;;;;;;15.40;98.60;;;;;;5055969;28;19909;-59
2023/05/29 03:13:50;;;;;;;;;;;15.40;99.50;;;;;;5056389;28;20340;-59
2023/05/29 03:16:16;;;;;;;;;;;15.40;99.90;;;;;;5057217;28;19943;-59
2023/05/29 03:18:41;;;;;;;;;;;15.30;99.90;;;;;;5056671;28;20333;-59
2023/05/29 03:21:07;;;;;;;;;;;15.30;97.70;;;;;;5057461;28;19916;-59
2023/05/29 03:23:33;;;;;;;;;;;15.30;99.90;;;;;;5057619;28;19951;-59
2023/05/29 03:25:58;;;;;;;;;;;15.30;99.50;;;;;;5057702;28;19916;-59
2023/05/29 03:28:24;;;;;;;;;;;15.30;99.90;;;;;;5057826;28;20162;-59
2023/05/29 03:30:51;;;;;;;;;;;15.30;99.70;;;;;;5057612;28;19915;-59
2023/05/29 03:33:17;;;;;;;;;;;15.20;99.50;;;;;;5057814;28;19992;-59
2023/05/29 03:35:42;;;;;;;;;;;15.20;99.50;;;;;;5058007;28;19959;-59
2023/05/29 03:38:08;;;;;;;;;;;15.20;99.90;;;;;;5057511;28;19908;-59
2023/05/29 03:40:33;;;;;;;;;;;15.20;99.90;;;;;;5057951;28;19908;-59
2023/05/29 03:42:59;;;;;;;;;;;15.20;99.90;;;;;;5057689;28;19909;-59
2023/05/29 03:45:25;;;;;;;;;;;15.20;99.70;;;;;;5057526;28;20297;-59
2023/05/29 03:47:51;;;;;;;;;;;15.20;99.90;;;;;;5057469;28;19916;-59
2023/05/29 03:50:16;;;;;;;;;;;15.10;99.90;;;;;;5057668;28;19916;-59
2023/05/29 03:52:42;;;;;;;;;;;15.10;99.90;;;;;;5057216;28;19909;-59
2023/05/29 03:55:12;;;;;;;;;;;15.20;99.90;;;;;;5057312;28;19913;-59
2023/05/29 03:57:40;;;;;;;;;;;15.20;99.90;;;;;;5057388;28;20292;-58
2023/05/29 04:00:12;;;;;;;;;;;15.20;99.90;;;;;;5039478;28;19916;-58
2023/05/29 04:02:38;;;;;;;;;;;15.20;99.90;;;;;;5057355;28;20356;-59
2023/05/29 04:05:06;;;;;;;;;;;15.10;99.90;;;;;;5057813;28;19908;-59
2023/05/29 04:07:32;;;;;;;;;;;15.10;99.90;;;;;;5057391;28;19920;-59
2023/05/29 04:09:57;;;;;;;;;;;15.20;99.90;;;;;;5057515;28;19913;-59
2023/05/29 04:12:23;;;;;;;;;;;15.10;99.90;;;;;;5056430;28;19908;-59
2023/05/29 04:14:48;;;;;;;;;;;15.10;99.90;;;;;;5055403;28;19913;-59
2023/05/29 04:17:14;;;;;;;;;;;15.10;99.90;;;;;;5055593;28;19916;-59
2023/05/29 04:19:40;;;;;;;;;;;15.10;99.90;;;;;;5056369;28;20538;-59
2023/05/29 04:22:05;;;;;;;;;;;15.10;99.90;;;;;;5058935;28;19935;-59
2023/05/29 04:24:35;;;;;;;;;;;15.30;99.90;;;;;;5059952;28;19912;-59
2023/05/29 04:27:01;;;;;;;;;;;15.10;99.90;;;;;;5059728;28;19981;-59
2023/05/29 04:29:28;;;;;;;;;;;15.10;99.90;;;;;;5059713;28;19958;-58
2023/05/29 04:31:55;;;;;;;;;;;15.10;99.90;;;;;;5060443;28;19916;-59
2023/05/29 04:34:21;;;;;;;;;;;15.10;99.90;;;;;;5060744;28;19915;-59
2023/05/29 04:36:47;;;;;;;;;;;15.00;99.90;;;;;;5060794;28;19909;-56
2023/05/29 04:39:13;;;;;;;;;;;15.00;99.90;;;;;;5060556;28;20355;-55
2023/05/29 04:41:40;;;;;;;;;;;15.00;99.90;;;;;;5060910;28;19916;-56
2023/05/29 04:44:07;;;;;;;;;;;15.00;99.90;;;;;;5060610;28;19940;-56
2023/05/29 04:46:34;;;;;;;;;;;14.90;99.90;;;;;;5060445;28;19972;-53
2023/05/29 04:48:59;;;;;;;;;;;14.90;99.90;;;;;;5060545;28;19932;-56
2023/05/29 04:51:25;;;;;;;;;;;14.90;99.90;;;;;;5060607;28;19913;-55
2023/05/29 04:53:54;;;;;;;;;;;14.90;99.90;;;;;;5060287;28;20275;-55
2023/05/29 04:56:20;;;;;;;;;;;14.90;99.90;;;;;;5060027;28;19954;-55
2023/05/29 04:58:45;;;;;;;;;;;14.90;99.90;;;;;;5060355;28;19913;-55
2023/05/29 05:01:14;;;;;;;;;;;14.90;99.90;;;;;;5060278;28;19963;-56
2023/05/29 05:03:43;;;;;;;;;;;14.90;99.90;;;;;;5060374;28;19909;-56
2023/05/29 05:06:09;;;;;;;;;;;14.90;99.90;;;;;;5059998;28;20387;-54
2023/05/29 05:08:34;;;;;;;;;;;14.90;99.90;;;;;;5059550;28;19974;-56
2023/05/29 05:11:01;;;;;;;;;;;14.90;99.90;;;;;;5059516;28;19909;-55
2023/05/29 05:13:26;;;;;;;;;;;14.90;99.90;;;;;;5059251;28;19921;-55
2023/05/29 05:15:52;;;;;;;;;;;14.90;99.90;;;;;;5058365;28;19909;-54
2023/05/29 05:18:18;;;;;;;;;;;14.90;99.90;;;;;;5057716;28;20393;-56
2023/05/29 05:20:43;;;;;;;;;;;14.90;99.90;;;;;;5058988;28;19908;-56
2023/05/29 05:23:10;;;;;;;;;;;14.90;99.90;;;;;;5057770;28;19910;-55
2023/05/29 05:25:36;;;;;;;;;;;14.90;99.90;;;;;;5058745;28;19913;-55
2023/05/29 05:28:03;;;;;;;;;;;14.90;99.90;;;;;;5059461;28;19913;-56
2023/05/29 05:30:28;;;;;;;;;;;14.90;99.90;;;;;;5058680;28;19945;-55
2023/05/29 05:32:55;;;;;;;;;;;15.00;99.90;;;;;;5057169;28;19920;-55
2023/05/29 05:35:20;;;;;;;;;;;15.00;99.90;;;;;;5057571;28;19916;-56
2023/05/29 05:37:46;;;;;;;;;;;15.10;99.90;;;;;;5057665;28;19909;-56
2023/05/29 05:40:12;;;;;;;;;;;15.00;99.90;;;;;;5058902;28;19909;-56
2023/05/29 05:42:38;;;;;;;;;;;15.00;99.90;;;;;;5057739;28;19992;-56
2023/05/29 05:45:05;;;;;;;;;;;15.10;99.90;;;;;;5057413;28;20311;-53
2023/05/29 05:47:31;;;;;;;;;;;15.10;99.90;;;;;;5059229;28;19919;-54
2023/05/29 05:49:57;;;;;;;;;;;15.20;99.90;;;;;;5059245;28;19908;-53
2023/05/29 05:52:23;;;;;;;;;;;15.20;99.90;;;;;;5058871;28;19909;-54
2023/05/29 05:54:49;;;;;;;;;;;15.20;99.90;;;;;;5058496;28;20291;-54
2023/05/29 05:57:15;;;;;;;;;;;15.20;99.90;;;;;;5059361;28;19961;-56
2023/05/29 05:59:40;;;;;;;;;;;15.30;99.90;;;;;;5058673;28;19909;-54
2023/05/29 06:02:06;;;;;;;;;;;15.30;99.90;;;;;;5057482;28;19916;-56
2023/05/29 06:04:32;;;;;;;;;;;15.30;99.90;;;;;;5058428;28;19909;-56
2023/05/29 06:06:58;;;;;;;;;;;15.40;99.90;;;;;;5058714;28;19920;-56
2023/05/29 06:09:24;;;;;;;;;;;15.40;99.90;;;;;;5058993;28;20328;-54
2023/05/29 06:11:50;;;;;;;;;;;15.40;99.90;;;;;;5058678;28;19913;-53
2023/05/29 06:14:16;;;;;;;;;;;15.50;99.90;;;;;;5058237;28;19982;-54
2023/05/29 06:16:42;;;;;;;;;;;15.50;99.90;;;;;;5058607;28;19928;-53
2023/05/29 06:19:08;;;;;;;;;;;15.50;99.90;;;;;;5058732;28;19915;-55
2023/05/29 06:21:34;;;;;;;;;;;15.50;99.90;;;;;;5058770;28;19909;-54
2023/05/29 06:24:00;;;;;;;;;;;15.60;99.90;;;;;;5058443;28;20497;-52
2023/05/29 06:26:26;;;;;;;;;;;15.70;99.90;;;;;;5058616;28;19971;-54
2023/05/29 06:28:52;;;;;;;;;;;15.70;99.90;;;;;;5058264;28;20284;-53
2023/05/29 06:31:18;;;;;;;;;;;15.80;99.90;;;;;;5058607;28;20267;-54
2023/05/29 06:33:44;;;;;;;;;;;15.80;99.90;;;;;;5058307;28;19997;-56
2023/05/29 06:36:10;;;;;;;;;;;15.90;99.90;;;;;;5058357;28;19909;-54
2023/05/29 06:38:36;;;;;;;;;;;16.00;99.90;;;;;;5058158;28;20327;-54
2023/05/29 06:41:02;;;;;;;;;;;16.00;99.90;;;;;;5057481;28;19915;-53
2023/05/29 06:43:28;;;;;;;;;;;16.00;99.90;;;;;;5057422;28;19909;-55
2023/05/29 06:45:54;;;;;;;;;;;16.00;99.90;;;;;;5056729;28;20551;-55
2023/05/29 06:48:20;;;;;;;;;;;16.00;99.90;;;;;;5056659;28;19912;-52
2023/05/29 06:50:47;;;;;;;;;;;16.10;99.90;;;;;;5057637;28;19909;-53
2023/05/29 06:53:12;;;;;;;;;;;16.10;99.90;;;;;;5058050;28;19915;-53
2023/05/29 06:55:40;;;;;;;;;;;16.10;99.90;;;;;;5058033;28;19996;-54
2023/05/29 06:58:06;;;;;;;;;;;16.20;99.90;;;;;;5057959;28;19912;-55
2023/05/29 07:00:32;;;;;;;;;;;16.20;99.90;;;;;;5057002;28;19970;-53
2023/05/29 07:02:58;;;;;;;;;;;16.30;99.90;;;;;;5056967;28;19909;-51
2023/05/29 07:05:27;;;;;;;;;;;16.30;99.90;;;;;;5057619;28;19920;-56
2023/05/29 07:07:56;;;;;;;;;;;16.40;99.90;;;;;;5071611;28;19917;-56
2023/05/29 07:10:21;;;;;;;;;;;16.50;99.90;;;;;;5073180;28;19912;-54
2023/05/29 07:12:47;;;;;;;;;;;16.60;99.90;;;;;;5066078;28;19996;-54
2023/05/29 07:15:13;;;;;;;;;;;16.60;99.90;;;;;;5063188;28;19925;-53
2023/05/29 07:17:38;;;;;;;;;;;16.70;99.90;;;;;;5077667;28;19931;-51
2023/05/29 07:20:07;;;;;;;;;;;16.70;99.90;;;;;;5077295;28;19912;-56
2023/05/29 07:22:34;;;;;;;;;;;16.80;99.90;;;;;;5077077;28;19947;-53
2023/05/29 07:25:00;;;;;;;;;;;16.90;99.90;;;;;;5076901;28;19919;-54
2023/05/29 07:27:25;;;;;;;;;;;16.90;99.90;;;;;;5077315;28;19999;-53
2023/05/29 07:29:51;;;;;;;;;;;17.00;99.90;;;;;;5061482;28;19938;-54
2023/05/29 07:32:16;;;;;;;;;;;17.10;99.90;;;;;;5057373;28;19916;-56
2023/05/29 07:34:42;;;;;;;;;;;17.10;99.90;;;;;;5057515;28;20435;-51
2023/05/29 07:37:08;;;;;;;;;;;17.20;99.90;;;;;;5057916;28;19991;-55
2023/05/29 07:39:34;;;;;;;;;;;17.20;99.90;;;;;;5062452;28;20419;-56
2023/05/29 07:42:03;;;;;;;;;;;17.30;99.90;;;;;;5057261;28;20250;-54
2023/05/29 07:44:29;;;;;;;;;;;17.40;99.90;;;;;;5057462;28;19916;-54
2023/05/29 07:46:55;;;;;;;;;;;17.40;99.90;;;;;;5057585;28;20291;-56
2023/05/29 07:49:21;;;;;;;;;;;17.40;99.90;;;;;;5071117;28;19916;-55
2023/05/29 07:51:46;;;;;;;;;;;17.50;99.90;;;;;;5064519;28;19913;-55
2023/05/29 07:54:12;;;;;;;;;;;17.60;99.90;;;;;;5066144;28;19948;-54
2023/05/29 07:56:38;;;;;;;;;;;17.70;99.90;;;;;;5070955;28;19909;-55
2023/05/29 07:59:05;;;;;;;;;;;17.70;99.90;;;;;;5071182;28;19908;-55
2023/05/29 08:01:31;;;;;;;;;;;17.70;99.90;;;;;;5075755;28;20018;-53
2023/05/29 08:03:56;;;;;;;;;;;17.70;99.90;;;;;;5076689;28;19912;-55
2023/05/29 08:06:22;;;;;;;;;;;17.80;99.90;;;;;;5079921;28;19916;-55
2023/05/29 08:08:47;;;;;;;;;;;17.80;99.90;;;;;;5080956;28;19912;-54
2023/05/29 08:11:13;;;;;;;;;;;17.80;99.90;;;;;;5067555;28;19917;-54
2023/05/29 08:13:39;;;;;;;;;;;17.80;99.90;;;;;;5060256;28;19960;-55
2023/05/29 08:16:05;;;;;;;;;;;17.90;99.90;;;;;;5060755;28;20375;-55
2023/05/29 08:18:31;;;;;;;;;;;18.00;99.90;;;;;;5060473;28;20368;-56
2023/05/29 08:20:57;;;;;;;;;;;18.10;99.90;;;;;;5061015;28;20038;-56
2023/05/29 08:23:22;;;;;;;;;;;18.20;99.90;;;;;;5060554;28;19955;-55
2023/05/29 08:25:48;;;;;;;;;;;18.30;99.90;;;;;;5060722;28;19909;-55
2023/05/29 08:28:16;;;;;;;;;;;18.40;99.90;;;;;;5060343;28;19912;-55
2023/05/29 08:30:42;;;;;;;;;;;18.40;99.90;;;;;;5060582;28;20364;-55
2023/05/29 08:33:08;;;;;;;;;;;18.50;99.90;;;;;;5060385;28;19971;-51
2023/05/29 08:35:33;;;;;;;;;;;18.60;99.90;;;;;;5060504;28;20019;-56
2023/05/29 08:37:59;;;;;;;;;;;18.60;99.90;;;;;;5059232;28;19909;-56
2023/05/29 08:40:25;;;;;;;;;;;18.70;99.90;;;;;;5060620;28;19956;-55
2023/05/29 08:42:56;;;;;;;;;;;18.80;99.90;;;;;;5060751;28;19916;-56
2023/05/29 08:45:22;;;;;;;;;;;18.80;99.90;;;;;;5042387;28;19909;-54
2023/05/29 08:47:51;;;;;;;;;;;18.90;99.90;;;;;;5060223;28;19920;-56
2023/05/29 08:50:17;;;;;;;;;;;19.10;99.90;;;;;;5060395;28;20368;-56
2023/05/29 08:52:43;;;;;;;;;;;19.20;99.90;;;;;;5060180;28;19909;-54
2023/05/29 08:55:09;;;;;;;;;;;19.20;99.90;;;;;;5060649;28;20320;-56
2023/05/29 08:57:36;;;;;;;;;;;19.30;99.90;;;;;;5060289;28;19992;-56
2023/05/29 09:00:08;;;;;;;;;;;19.30;99.90;;;;;;5060276;28;19909;-56
2023/05/29 09:02:35;;;;;;;;;;;19.30;99.90;;;;;;5060113;28;20004;-53
2023/05/29 09:05:01;;;;;;;;;;;19.30;99.90;;;;;;5059906;28;19945;-55
2023/05/29 09:07:27;;;;;;;;;;;19.50;99.90;;;;;;5059065;28;19920;-54
2023/05/29 09:09:53;;;;;;;;;;;19.50;99.90;;;;;;5060041;28;19952;-54
2023/05/29 09:12:18;;;;;;;;;;;19.70;99.90;;;;;;5060046;28;20344;-53
2023/05/29 09:14:45;;;;;;;;;;;19.70;99.90;;;;;;5059884;28;19951;-54
2023/05/29 09:17:11;;;;;;;;;;;19.80;99.90;;;;;;5060163;28;19962;-54
2023/05/29 09:19:41;;;;;;;;;;;19.60;99.90;;;;;;5060107;28;19909;-54
2023/05/29 09:22:10;;;;;;;;;;;19.60;99.90;;;;;;5059619;28;19909;-57
2023/05/29 09:24:37;;;;;;;;;;;19.60;98.60;;;;;;5059615;28;19962;-55
2023/05/29 09:27:12;;;;;;;;;;;19.70;99.90;;;;;;5059313;28;20387;-56
2023/05/29 09:29:40;;;;;;;;;;;19.80;99.90;;;;;;5059203;28;19909;-56
2023/05/29 09:32:08;;;;;;;;;;;19.90;99.90;;;;;;5059548;28;19937;-53
2023/05/29 09:34:34;;;;;;;;;;;20.10;98.00;;;;;;5059690;28;19959;-56
2023/05/29 09:37:12;;;;;;;;;;;20.30;99.90;;;;;;5063811;28;19920;-56
2023/05/29 09:39:45;;;;;;;;;;;20.50;99.90;;;;;;5067126;28;19955;-57
2023/05/29 09:42:11;;;;;;;;;;;20.70;98.10;;;;;;5064793;28;20368;-55
2023/05/29 09:44:37;;;;;;;;;;;20.70;98.20;;;;;;5073004;28;19908;-56
2023/05/29 09:47:03;;;;;;;;;;;21.00;98.60;;;;;;5079013;28;19920;-55
2023/05/29 09:49:31;;;;;;;;;;;21.00;97.50;;;;;;5079020;28;19915;-55
2023/05/29 09:51:59;;;;;;;;;;;21.20;95.90;;;;;;5079249;28;19909;-55
2023/05/29 09:54:28;;;;;;;;;;;21.40;96.50;;;;;;5079135;28;19975;-56
2023/05/29 09:56:53;;;;;;;;;;;21.40;94.40;;;;;;5078932;28;20023;-53
2023/05/29 09:59:21;;;;;;;;;;;21.60;94.80;;;;;;5078920;28;20000;-56
2023/05/29 10:01:46;;;;;;;;;;;21.60;95.10;;;;;;5079062;28;19916;-56
2023/05/29 10:04:13;;;;;;;;;;;21.80;95.30;;;;;;5079045;28;19908;-56
2023/05/29 10:06:45;;;;;;;;;;;22.00;90.90;;;;;;5078644;28;20355;-56
2023/05/29 10:09:11;;;;;;;;;;;21.90;91.00;;;;;;5078767;28;19908;-56
2023/05/29 10:11:43;;;;;;;;;;;22.20;95.10;;;;;;5078865;28;19915;-55
2023/05/29 10:14:11;;;;;;;;;;;22.60;90.30;;;;;;5078363;28;19927;-57
2023/05/29 10:16:41;;;;;;;;;;;23.60;93.40;;;;;;5077998;28;19908;-57
2023/05/29 10:19:09;;;;;;;;;;;24.30;94.50;;;;;;5077985;28;19912;-55
2023/05/29 10:21:36;;;;;;;;;;;25.00;93.00;;;;;;5078385;28;19965;-55
2023/05/29 10:24:06;;;;;;;;;;;25.40;91.30;;;;;;5078740;28;19930;-55
2023/05/29 10:26:34;;;;;;;;;;;25.10;70.10;;;;;;5078652;28;19921;-56
2023/05/29 10:28:59;;;;;;;;;;;25.50;88.30;;;;;;5078505;28;19935;-54
2023/05/29 10:31:30;;;;;;;;;;;26.00;78.50;;;;;;5078594;28;19921;-56
2023/05/29 10:34:19;;;;;;;;;;;25.80;69.60;;;;;;5078286;28;19912;-54
2023/05/29 10:36:49;;;;;;;;;;;25.80;71.20;;;;;;5070112;28;19908;-56
2023/05/29 10:39:15;;;;;;;;;;;25.80;78.20;;;;;;5067663;28;19916;-55
2023/05/29 10:41:41;;;;;;;;;;;26.00;71.60;;;;;;5058035;28;20349;-56
2023/05/29 10:44:45;;;;;;;;;;;25.70;65.50;;;;;;5058577;28;19909;-56
2023/05/29 10:47:12;;;;;;;;;;;25.90;74.90;;;;;;5016315;28;19921;-52
2023/05/29 10:49:37;;;;;;;;;;;26.10;71.80;;;;;;5015701;28;20413;-56
2023/05/29 10:52:04;;;;;;;;;;;26.10;68.00;;;;;;5035820;28;19940;-56
2023/05/29 10:54:39;;;;;;;;;;;26.30;66.30;;;;;;5058105;28;19909;-56
2023/05/29 10:57:08;;;;;;;;;;;27.10;73.50;;;;;;5058112;28;19909;-56
2023/05/29 10:59:37;;;;;;;;;;;27.00;66.60;;;;;;5058132;28;19987;-56
2023/05/29 11:02:04;;;;;;;;;;;27.60;71.00;;;;;;5060537;28;19967;-55
2023/05/29 11:04:31;;;;;;;;;;;28.10;63.30;;;;;;5060401;28;19920;-57
2023/05/29 11:06:57;;;;;;;;;;;27.80;60.60;;;;;;5062799;28;20272;-57
2023/05/29 11:09:36;;;;;;;;;;;27.80;63.90;;;;;;5067943;28;19920;-57
2023/05/29 11:12:16;;;;;;;;;;;28.10;61.00;;;;;;5062837;28;19909;-52
2023/05/29 11:14:45;;;;;;;;;;;28.10;63.20;;;;;;5070981;28;19960;-54
2023/05/29 11:17:28;;;;;;;;;;;28.70;60.40;;;;;;5059889;28;19962;-55
2023/05/29 11:19:55;;;;;;;;;;;28.60;58.90;;;;;;5057287;28;19909;-57
2023/05/29 11:22:23;;;;;;;;;;;28.90;61.40;;;;;;5057297;28;19916;-56
2023/05/29 11:24:51;;;;;;;;;;;28.90;60.10;;;;;;5056725;28;19913;-57
2023/05/29 11:27:16;;;;;;;;;;;29.00;55.10;;;;;;5055287;28;20299;-57
2023/05/29 11:29:42;;;;;;;;;;;28.70;54.90;;;;;;5057690;28;19909;-56
2023/05/29 11:32:12;;;;;;;;;;;28.70;55.90;;;;;;5061379;28;20427;-57
2023/05/29 11:34:39;;;;;;;;;;;28.70;54.40;;;;;;5061883;28;19963;-57
2023/05/29 11:37:04;;;;;;;;;;;29.40;56.20;;;;;;5061558;28;19909;-55
2023/05/29 11:39:33;;;;;;;;;;;29.10;54.80;;;;;;5061487;28;20336;-56
2023/05/29 11:42:00;;;;;;;;;;;29.80;53.80;;;;;;5061554;28;19908;-54
2023/05/29 11:44:28;;;;;;;;;;;29.80;51.50;;;;;;5061316;28;19913;-55
2023/05/29 11:47:02;;;;;;;;;;;29.60;54.00;;;;;;5061428;28;19952;-55
2023/05/29 11:49:37;;;;;;;;;;;29.10;52.40;;;;;;5061549;28;19908;-55
2023/05/29 11:52:06;;;;;;;;;;;29.00;51.60;;;;;;5061336;28;19912;-56
2023/05/29 11:54:33;;;;;;;;;;;28.30;51.30;;;;;;5061232;28;19916;-57
2023/05/29 11:57:00;;;;;;;;;;;28.70;52.20;;;;;;5061470;28;19916;-56
2023/05/29 11:59:28;;;;;;;;;;;28.70;49.70;;;;;;5061174;28;19909;-57
2023/05/29 12:01:53;;;;;;;;;;;28.70;51.50;;;;;;5061700;28;19915;-57
2023/05/29 12:04:19;;;;;;;;;;;29.10;52.10;;;;;;5061386;28;19956;-56
2023/05/29 12:06:45;;;;;;;;;;;29.40;52.30;;;;;;5061121;28;19916;-57
2023/05/29 12:09:23;;;;;;;;;;;29.50;50.80;;;;;;5061034;28;19916;-54
2023/05/29 12:11:50;;;;;;;;;;;29.20;50.30;;;;;;5061192;28;19920;-56
2023/05/29 12:14:15;;;;;;;;;;;29.70;51.00;;;;;;5060713;28;19925;-57
2023/05/29 12:16:41;;;;;;;;;;;29.60;51.70;;;;;;5061227;28;19915;-55
2023/05/29 12:19:06;;;;;;;;;;;29.30;47.50;;;;;;5061086;28;19909;-57
2023/05/29 12:21:32;;;;;;;;;;;30.10;50.60;;;;;;5060951;28;19909;-57
2023/05/29 12:23:58;;;;;;;;;;;30.40;48.10;;;;;;5060790;28;19916;-52
2023/05/29 12:26:25;;;;;;;;;;;30.80;49.20;;;;;;5061110;28;19909;-56
2023/05/29 12:28:52;;;;;;;;;;;31.00;48.90;;;;;;5060808;28;19913;-53
2023/05/29 12:31:31;;;;;;;;;;;30.60;45.30;;;;;;5060710;28;19916;-56
2023/05/29 12:34:00;;;;;;;;;;;30.90;49.50;;;;;;5060793;28;19916;-55
2023/05/29 12:36:26;;;;;;;;;;;30.80;44.90;;;;;;5061113;28;19913;-56
2023/05/29 12:38:52;;;;;;;;;;;30.70;46.50;;;;;;5060301;28;19916;-56
2023/05/29 12:41:25;;;;;;;;;;;31.00;47.80;;;;;;5060267;28;19909;-55
2023/05/29 12:43:52;;;;;;;;;;;31.20;46.10;;;;;;5060410;28;19909;-55
2023/05/29 12:46:18;;;;;;;;;;;30.80;45.10;;;;;;5060514;28;19916;-54
2023/05/29 12:48:43;;;;;;;;;;;30.90;48.00;;;;;;5060291;28;19912;-56
2023/05/29 12:51:09;;;;;;;;;;;31.10;46.70;;;;;;5060704;28;19909;-57
2023/05/29 12:53:35;;;;;;;;;;;31.90;47.80;;;;;;5060302;28;19913;-57
2023/05/29 12:56:01;;;;;;;;;;;31.70;44.20;;;;;;5060516;28;19962;-56
2023/05/29 12:58:27;;;;;;;;;;;31.30;45.40;;;;;;5060134;28;19909;-55
2023/05/29 13:00:56;;;;;;;;;;;31.50;44.30;;;;;;5060687;28;19915;-56
2023/05/29 13:03:24;;;;;;;;;;;31.60;44.10;;;;;;5060257;28;19948;-57
2023/05/29 13:05:50;;;;;;;;;;;31.30;44.00;;;;;;5060182;28;19909;-57
2023/05/29 13:08:16;;;;;;;;;;;31.40;44.70;;;;;;5060140;28;19917;-56
2023/05/29 13:10:41;;;;;;;;;;;31.50;43.70;;;;;;5060110;28;19916;-58
2023/05/29 13:13:08;;;;;;;;;;;31.40;43.90;;;;;;5059643;28;19921;-56
2023/05/29 13:15:34;;;;;;;;;;;31.20;43.00;;;;;;5060004;28;20750;-57
2023/05/29 13:17:59;;;;;;;;;;;30.80;44.70;;;;;;5059778;28;19955;-55
2023/05/29 13:20:25;;;;;;;;;;;30.80;43.20;;;;;;5059964;28;19915;-58
2023/05/29 13:22:50;;;;;;;;;;;30.60;45.10;;;;;;5059489;28;19909;-57
2023/05/29 13:25:17;;;;;;;;;;;30.70;44.50;;;;;;5059576;28;19909;-57
2023/05/29 13:27:44;;;;;;;;;;;30.50;43.50;;;;;;5059601;28;19913;-56
2023/05/29 13:30:09;;;;;;;;;;;30.50;45.10;;;;;;5059746;28;19916;-57
2023/05/29 13:32:35;;;;;;;;;;;30.80;43.00;;;;;;5059690;28;19909;-57
2023/05/29 13:35:02;;;;;;;;;;;30.90;42.30;;;;;;5059235;28;20323;-57
2023/05/29 13:37:27;;;;;;;;;;;31.10;43.40;;;;;;5059338;28;19964;-58
2023/05/29 13:39:53;;;;;;;;;;;31.10;42.20;;;;;;5059829;28;20352;-56
2023/05/29 13:42:20;;;;;;;;;;;30.50;42.40;;;;;;5059232;28;19913;-57
2023/05/29 13:44:46;;;;;;;;;;;30.70;42.40;;;;;;5059399;28;19909;-58
2023/05/29 13:47:11;;;;;;;;;;;30.80;42.40;;;;;;5059363;28;19916;-56
2023/05/29 13:49:37;;;;;;;;;;;30.20;42.70;;;;;;5059395;28;19909;-57
2023/05/29 13:52:03;;;;;;;;;;;30.00;42.00;;;;;;5058419;28;19962;-51
2023/05/29 13:54:35;;;;;;;;;;;29.70;41.80;;;;;;5059798;28;19956;-54
2023/05/29 13:57:05;;;;;;;;;;;29.70;42.60;;;;;;5059032;28;19948;-54
2023/05/29 13:59:34;;;;;;;;;;;30.00;43.00;;;;;;5058878;28;19909;-53
2023/05/29 14:02:00;;;;;;;;;;;30.00;42.30;;;;;;5059121;28;19909;-54
2023/05/29 14:04:26;;;;;;;;;;;29.60;42.20;;;;;;5059172;28;19967;-55
2023/05/29 14:06:52;;;;;;;;;;;29.90;43.40;;;;;;5058722;28;19936;-57
2023/05/29 14:09:22;;;;;;;;;;;30.00;42.60;;;;;;5058165;28;19908;-57
2023/05/29 14:11:48;;;;;;;;;;;29.30;41.60;;;;;;5057243;28;19912;-57
2023/05/29 14:14:15;;;;;;;;;;;28.60;42.10;;;;;;5056851;28;19927;-54